This is the latest recevied weather packets stored in our database for station/object KB3KAV. If no packets are shown the sender has not sent any weather packets the latest 10 day(s).
| Time | Temp. | Humidity | Pressure | Rain* | Wind** | Luminosity | Snow |
|---|---|---|---|---|---|---|---|
| 1788114500 | 25° C | 75% | 1048.6 hPa | 0 mm | - | 327 W/m² | - |
| 1788113898 | 24.44° C | 75% | 1049 hPa | 0 mm | - | 275 W/m² | - |
| 1788113298 | 25° C | 74% | 1048.9 hPa | 0 mm | - | 257 W/m² | - |
| 1788112698 | 24.44° C | 76% | 1049.2 hPa | 0 mm | - | 369 W/m² | - |
| 1788112094 | 24.44° C | 75% | 1049.3 hPa | 0 mm | - | 236 W/m² | - |
| 1788111489 | 25° C | 75% | 1049.1 hPa | 0 mm | - | 390 W/m² | - |
| 1788110887 | 24.44° C | 73% | 1049.3 hPa | 0 mm | - | 498 W/m² | - |
| 1788110285 | 24.44° C | 75% | 1049.4 hPa | 0 mm | - | 559 W/m² | - |
| 1788109680 | 24.44° C | 73% | 1049.4 hPa | 0 mm | - | 472 W/m² | - |
| 1788109078 | 23.89° C | 76% | 1049.5 hPa | 0 mm | - | 439 W/m² | - |
| 1788108477 | 23.89° C | 76% | 1049.5 hPa | 0 mm | - | 407 W/m² | - |
| 1788107875 | 23.89° C | 76% | 1049.8 hPa | 0 mm | - | 329 W/m² | - |
| 1788107270 | 23.89° C | 76% | 1049.6 hPa | 0 mm | - | 415 W/m² | - |
| 1788106668 | 23.89° C | 76% | 1049.9 hPa | 0 mm | - | 448 W/m² | - |
| 1788106063 | 23.33° C | 77% | 1050 hPa | 0 mm | - | 324 W/m² | - |
| 1788105459 | 23.89° C | 75% | 1049.9 hPa | 0 mm | - | 855 W/m² | - |
| 1788104855 | 22.78° C | 77% | 1050 hPa | 0 mm | - | 303 W/m² | - |
| 1788104254 | 23.33° C | 76% | 1050 hPa | 0 mm | - | 197 W/m² | - |
| 1788103653 | 23.33° C | 75% | 1050.2 hPa | 0 mm | - | 667 W/m² | - |
| 1788103048 | 22.78° C | 76% | 1050 hPa | 0 mm | - | 391 W/m² | - |
| 1788102443 | 21.67° C | 77% | 1050.2 hPa | 0 mm | - | 349 W/m² | - |
| 1788101843 | 21.67° C | 78% | 1050.4 hPa | 0 mm | - | 376 W/m² | - |
| 1788101238 | 21.67° C | 75% | 1050.3 hPa | 0 mm | - | 336 W/m² | - |
| 1788100636 | 21.11° C | 80% | 1050.3 hPa | 0 mm | - | 448 W/m² | - |
| 1788100035 | 20° C | 85% | 1050.9 hPa | 0 mm | - | 206 W/m² | - |
* Rain latest hour (hover to see other rain measurements)
** Current wind speed in m/s (hover to see current wind gust speed)